createdAt,value
2023-03-19T00:00:45.708Z,5.26
2023-03-19T00:03:36.865Z,5.04
2023-03-19T00:06:08.178Z,4.86
2023-03-19T00:08:39.210Z,4.70
2023-03-19T00:11:10.201Z,4.54
2023-03-19T00:13:41.497Z,4.90
2023-03-19T00:16:12.307Z,6.39
2023-03-19T00:18:43.190Z,7.47
2023-03-19T00:21:13.910Z,8.21
2023-03-19T00:23:45.016Z,8.92
2023-03-19T00:26:15.594Z,8.82
2023-03-19T00:28:47.483Z,7.77
2023-03-19T00:31:18.575Z,6.90
2023-03-19T00:33:49.373Z,6.31
2023-03-19T00:36:20.559Z,6.21
2023-03-19T00:38:51.795Z,7.40
2023-03-19T00:41:22.971Z,8.37
2023-03-19T00:43:56.018Z,7.72
2023-03-19T00:46:27.679Z,6.75
2023-03-19T00:48:59.138Z,6.03
2023-03-19T00:51:29.784Z,5.50
2023-03-19T00:54:00.395Z,5.32
2023-03-19T00:56:31.233Z,6.49
2023-03-19T00:59:02.580Z,7.87
2023-03-19T01:01:33.427Z,8.01
2023-03-19T01:04:05.408Z,6.87
2023-03-19T01:06:36.107Z,5.87
2023-03-19T01:09:07.040Z,5.68
2023-03-19T01:11:39.409Z,6.68
2023-03-19T01:14:11.305Z,7.50
2023-03-19T01:16:42.104Z,7.57
2023-03-19T01:19:13.159Z,6.61
2023-03-19T01:21:46.675Z,5.69
2023-03-19T01:24:20.860Z,5.43
2023-03-19T01:26:56.313Z,6.43
2023-03-19T01:29:38.099Z,7.43
2023-03-19T01:32:28.834Z,8.14
2023-03-19T01:35:35.623Z,8.08
2023-03-19T01:38:06.717Z,7.13
2023-03-19T01:40:37.742Z,5.93
2023-03-19T01:43:19.257Z,5.29
2023-03-19T01:46:02.010Z,6.21
2023-03-19T01:48:52.870Z,7.47
2023-03-19T01:51:25.857Z,8.20
2023-03-19T01:54:05.036Z,8.32
2023-03-19T01:56:50.806Z,7.26
2023-03-19T01:59:30.023Z,6.10
2023-03-19T02:02:15.681Z,5.33
2023-03-19T02:04:47.734Z,4.91
2023-03-19T02:07:18.774Z,5.81
2023-03-19T02:09:49.623Z,7.08
2023-03-19T02:12:20.656Z,8.01
2023-03-19T02:14:51.185Z,8.54
2023-03-19T02:17:23.069Z,7.63
2023-03-19T02:19:58.398Z,6.46
2023-03-19T02:22:30.825Z,5.57
2023-03-19T02:25:03.952Z,5.03
2023-03-19T02:27:35.012Z,5.69
2023-03-19T02:30:19.369Z,7.01
2023-03-19T02:32:50.310Z,7.93
2023-03-19T02:35:21.736Z,8.11
2023-03-19T02:37:52.504Z,6.76
2023-03-19T02:40:24.957Z,5.60
2023-03-19T02:42:55.766Z,5.33
2023-03-19T02:45:29.217Z,6.24
2023-03-19T02:48:00.371Z,7.22
2023-03-19T02:50:31.518Z,7.96
2023-03-19T02:53:01.981Z,8.39
2023-03-19T02:55:33.016Z,7.79
2023-03-19T02:58:03.648Z,6.49
2023-03-19T03:00:34.929Z,5.45
2023-03-19T03:03:06.832Z,4.84
2023-03-19T03:05:38.019Z,5.54
2023-03-19T03:08:08.429Z,6.77
2023-03-19T03:10:39.476Z,7.71
2023-03-19T03:13:09.857Z,8.04
2023-03-19T03:15:41.024Z,6.99
2023-03-19T03:18:11.569Z,5.87
2023-03-19T03:20:42.706Z,5.01
2023-03-19T03:23:13.163Z,5.15
2023-03-19T03:25:44.003Z,6.47
2023-03-19T03:28:15.043Z,7.49
2023-03-19T03:30:46.112Z,7.83
2023-03-19T03:33:17.635Z,6.81
2023-03-19T03:35:49.197Z,5.68
2023-03-19T03:38:19.991Z,5.07
2023-03-19T03:40:52.763Z,5.93
2023-03-19T03:43:23.921Z,7.13
2023-03-19T03:45:55.484Z,7.47
2023-03-19T03:48:26.210Z,6.43
2023-03-19T03:50:57.279Z,5.41
2023-03-19T03:53:29.920Z,4.87
2023-03-19T03:56:01.179Z,5.92
2023-03-19T03:58:31.810Z,7.23
2023-03-19T04:01:03.178Z,6.71
2023-03-19T04:03:35.053Z,5.21
2023-03-19T04:06:06.648Z,5.02
2023-03-19T04:08:37.204Z,5.88
2023-03-19T04:11:09.482Z,6.51
2023-03-19T04:13:40.200Z,6.65
2023-03-19T04:16:12.501Z,5.38
2023-03-19T04:18:42.990Z,4.20
2023-03-19T04:21:14.237Z,4.27
2023-03-19T04:23:44.979Z,5.45
2023-03-19T04:26:16.427Z,6.38
2023-03-19T04:28:47.222Z,7.09
2023-03-19T04:31:18.246Z,7.61
2023-03-19T04:33:49.420Z,7.69
2023-03-19T04:36:20.789Z,6.56
2023-03-19T04:38:51.609Z,5.46
2023-03-19T04:41:23.697Z,4.66
2023-03-19T04:44:10.311Z,3.98
2023-03-19T04:46:44.952Z,3.78
2023-03-19T04:49:16.009Z,5.01
2023-03-19T04:51:47.138Z,6.25
2023-03-19T04:54:18.973Z,7.25
2023-03-19T04:56:49.892Z,7.08
2023-03-19T04:59:22.873Z,5.64
2023-03-19T05:01:54.434Z,5.16
2023-03-19T05:04:26.911Z,6.15
2023-03-19T05:06:59.796Z,6.63
2023-03-19T05:09:31.156Z,7.16
2023-03-19T05:12:02.068Z,7.73
2023-03-19T05:14:35.476Z,7.77
2023-03-19T05:17:17.873Z,6.61
2023-03-19T05:19:54.039Z,5.56
2023-03-19T05:22:25.276Z,4.80
2023-03-19T05:24:58.685Z,4.46
2023-03-19T05:27:30.683Z,5.56
2023-03-19T05:30:13.782Z,6.91
2023-03-19T05:33:04.182Z,7.88
2023-03-19T05:35:39.347Z,7.29
2023-03-19T05:38:15.821Z,6.06
2023-03-19T05:40:47.436Z,5.24
2023-03-19T05:43:33.000Z,4.75
2023-03-19T05:46:04.841Z,5.64
2023-03-19T05:48:37.127Z,7.05
2023-03-19T05:51:08.119Z,7.86
2023-03-19T05:53:43.118Z,7.11
2023-03-19T05:56:32.566Z,6.08
2023-03-19T05:59:17.338Z,5.41
2023-03-19T06:01:52.015Z,4.96
2023-03-19T06:04:23.536Z,4.91
2023-03-19T06:06:54.188Z,6.20
2023-03-19T06:09:25.593Z,7.56
2023-03-19T06:11:59.504Z,7.96
2023-03-19T06:14:49.272Z,6.98
2023-03-19T06:17:46.017Z,5.98
2023-03-19T06:20:19.115Z,5.40
2023-03-19T06:22:49.692Z,4.97
2023-03-19T06:25:20.972Z,4.91
2023-03-19T06:27:51.712Z,6.08
2023-03-19T06:30:27.985Z,7.62
2023-03-19T06:32:59.987Z,8.46
2023-03-19T06:35:32.427Z,7.71
2023-03-19T06:38:02.936Z,6.89
2023-03-19T06:40:33.944Z,6.32
2023-03-19T06:43:04.624Z,5.90
2023-03-19T06:45:35.790Z,5.62
2023-03-19T06:48:06.936Z,5.43
2023-03-19T06:50:38.042Z,5.32
2023-03-19T06:53:08.783Z,5.50
2023-03-19T06:55:40.432Z,7.02
2023-03-19T06:58:10.853Z,8.43
2023-03-19T07:00:41.835Z,8.00
2023-03-19T07:03:12.536Z,7.37
2023-03-19T07:05:43.683Z,6.97
2023-03-19T07:08:14.055Z,6.71
2023-03-19T07:10:45.345Z,6.53
2023-03-19T07:13:16.082Z,6.43
2023-03-19T07:15:48.527Z,6.40
2023-03-19T07:18:19.791Z,6.41
2023-03-19T07:20:50.856Z,6.46
2023-03-19T07:23:21.500Z,6.52
2023-03-19T07:25:52.517Z,6.61
2023-03-19T07:28:23.165Z,6.73
2023-03-19T07:30:54.332Z,6.83
2023-03-19T07:33:24.705Z,6.94
2023-03-19T07:35:56.402Z,7.05
2023-03-19T07:38:27.004Z,7.18
2023-03-19T07:41:02.478Z,7.32
2023-03-19T07:43:33.470Z,7.46
2023-03-19T07:46:04.547Z,7.62
2023-03-19T07:48:34.952Z,7.78
2023-03-19T07:51:06.227Z,7.95
2023-03-19T07:53:36.808Z,8.11
2023-03-19T07:56:08.578Z,8.25
2023-03-19T07:58:38.939Z,8.41
2023-03-19T08:01:10.189Z,8.57
2023-03-19T08:03:40.764Z,8.74
2023-03-19T08:06:12.121Z,8.95
2023-03-19T08:08:42.545Z,9.13
2023-03-19T08:11:13.396Z,9.28
2023-03-19T08:13:43.800Z,9.44
2023-03-19T08:16:15.053Z,9.62
2023-03-19T08:18:45.785Z,9.80
2023-03-19T08:21:16.927Z,9.95
2023-03-19T08:23:47.561Z,10.13
2023-03-19T08:26:18.800Z,10.30
2023-03-19T08:28:49.175Z,10.41
2023-03-19T08:31:20.391Z,10.47
2023-03-19T08:33:50.935Z,10.56
2023-03-19T08:36:22.662Z,10.70
2023-03-19T08:38:55.010Z,10.85
2023-03-19T08:41:26.191Z,10.97
2023-03-19T08:43:56.594Z,11.14
2023-03-19T08:46:28.369Z,11.26
2023-03-19T08:48:58.882Z,11.31
2023-03-19T08:51:31.870Z,11.37
2023-03-19T08:54:02.705Z,11.42
2023-03-19T08:56:33.948Z,11.47
2023-03-19T08:59:04.473Z,11.52
2023-03-19T09:01:35.329Z,11.61
2023-03-19T09:04:06.242Z,11.69
2023-03-19T09:06:37.412Z,11.80
2023-03-19T09:09:07.927Z,11.88
2023-03-19T09:11:39.246Z,11.96
2023-03-19T09:14:11.707Z,12.06
2023-03-19T09:16:43.092Z,12.20
2023-03-19T09:19:13.686Z,12.33
2023-03-19T09:21:46.034Z,12.42
2023-03-19T09:24:16.388Z,12.52
2023-03-19T09:26:47.886Z,12.60
2023-03-19T09:29:18.228Z,12.66
2023-03-19T09:31:49.608Z,12.76
2023-03-19T09:34:19.976Z,12.87
2023-03-19T09:36:58.424Z,13.00
2023-03-19T09:39:29.306Z,13.12
2023-03-19T09:42:06.619Z,13.24
2023-03-19T09:44:38.258Z,13.35
2023-03-19T09:47:17.342Z,13.49
2023-03-19T09:49:49.369Z,13.63
2023-03-19T09:52:27.040Z,13.74
2023-03-19T09:54:58.746Z,13.79
2023-03-19T09:57:30.449Z,13.87
2023-03-19T10:00:01.510Z,14.01
2023-03-19T10:02:39.245Z,14.17
2023-03-19T10:05:21.184Z,14.25
2023-03-19T10:08:03.417Z,14.29
2023-03-19T10:10:44.056Z,14.37
2023-03-19T10:13:19.412Z,14.46
2023-03-19T10:15:51.690Z,14.49
2023-03-19T10:18:26.022Z,14.52
2023-03-19T10:20:59.681Z,14.58
2023-03-19T10:23:33.999Z,14.60
2023-03-19T10:26:06.108Z,14.64
2023-03-19T10:28:37.842Z,14.75
2023-03-19T10:31:19.306Z,14.88
2023-03-19T10:33:54.878Z,15.01
2023-03-19T10:36:27.965Z,15.16
2023-03-19T10:38:59.499Z,15.29
2023-03-19T10:41:36.161Z,15.39
2023-03-19T10:44:11.570Z,15.51
2023-03-19T10:46:42.331Z,15.55
2023-03-19T10:49:17.330Z,15.58
2023-03-19T10:51:48.135Z,15.69
2023-03-19T10:54:22.182Z,15.77
2023-03-19T10:56:53.374Z,15.86
2023-03-19T10:59:25.770Z,15.98
2023-03-19T11:01:59.866Z,16.07
2023-03-19T11:04:33.249Z,16.15
2023-03-19T11:07:10.595Z,16.22
2023-03-19T11:09:42.190Z,16.32
2023-03-19T11:12:18.981Z,16.41
2023-03-19T11:14:51.456Z,16.47
2023-03-19T11:17:27.090Z,16.50
2023-03-19T11:19:59.200Z,16.49
2023-03-19T11:22:31.824Z,16.41
2023-03-19T11:25:03.543Z,16.36
2023-03-19T11:27:35.093Z,16.35
2023-03-19T11:30:09.677Z,16.37
2023-03-19T11:32:53.544Z,16.44
2023-03-19T11:35:28.957Z,16.48
2023-03-19T11:38:04.709Z,16.57
2023-03-19T11:40:40.196Z,16.60
2023-03-19T11:43:22.728Z,16.68
2023-03-19T11:45:58.008Z,16.67
2023-03-19T11:48:35.182Z,16.56
2023-03-19T11:51:09.792Z,16.50
2023-03-19T11:53:45.097Z,16.53
2023-03-19T11:56:22.633Z,16.58
2023-03-19T11:59:06.879Z,16.63
2023-03-19T12:01:47.461Z,16.69
2023-03-19T12:04:23.718Z,16.74
2023-03-19T12:07:01.193Z,16.79
2023-03-19T12:09:37.356Z,16.86
2023-03-19T12:12:14.742Z,16.93
2023-03-19T12:14:52.753Z,17.01
2023-03-19T12:17:30.392Z,17.05
2023-03-19T12:20:07.965Z,17.11
2023-03-19T12:22:44.288Z,17.18
2023-03-19T12:25:31.449Z,17.23
2023-03-19T12:28:05.028Z,17.27
2023-03-19T12:30:33.758Z,17.33
2023-03-19T12:33:18.139Z,17.44
2023-03-19T12:35:50.890Z,17.50
2023-03-19T12:38:25.663Z,17.57
2023-03-19T12:40:59.805Z,17.57
2023-03-19T12:43:33.693Z,17.56
2023-03-19T12:46:08.815Z,17.57
2023-03-19T12:48:42.598Z,17.60
2023-03-19T12:51:15.565Z,17.64
2023-03-19T12:53:45.539Z,17.69
2023-03-19T12:56:18.956Z,17.79
2023-03-19T12:58:57.411Z,17.90
2023-03-19T13:01:32.046Z,18.01
2023-03-19T13:04:08.091Z,18.15
2023-03-19T13:06:40.286Z,18.22
2023-03-19T13:09:15.329Z,18.66
2023-03-19T13:11:48.715Z,19.41
2023-03-19T13:14:23.440Z,20.15
2023-03-19T13:16:56.664Z,20.81
2023-03-19T13:19:30.659Z,21.28
2023-03-19T13:22:03.603Z,21.69
2023-03-19T13:24:35.934Z,22.05
2023-03-19T13:27:07.885Z,22.44
2023-03-19T13:29:39.480Z,22.71
2023-03-19T13:32:23.762Z,22.86
2023-03-19T13:35:09.970Z,23.10
2023-03-19T13:37:42.884Z,23.42
2023-03-19T13:40:27.922Z,23.80
2023-03-19T13:42:58.744Z,24.11
2023-03-19T13:45:36.090Z,24.27
2023-03-19T13:48:24.379Z,24.13
2023-03-19T13:51:01.307Z,24.14
2023-03-19T13:53:39.493Z,24.29
2023-03-19T13:56:28.670Z,24.54
2023-03-19T13:59:13.344Z,24.74
2023-03-19T14:01:47.671Z,24.64
2023-03-19T14:04:20.102Z,24.35
2023-03-19T14:15:03.257Z,22.87
2023-03-19T14:17:35.427Z,22.67
2023-03-19T14:20:28.394Z,22.49
2023-03-19T14:23:23.482Z,22.27
2023-03-19T14:26:01.922Z,22.07
2023-03-19T14:28:36.850Z,21.85
2023-03-19T14:31:08.637Z,21.67
2023-03-19T14:33:43.645Z,21.47
2023-03-19T14:36:17.558Z,21.42
2023-03-19T14:38:51.200Z,21.32
2023-03-19T14:41:23.737Z,21.14
2023-03-19T14:44:02.947Z,20.77
2023-03-19T14:46:38.617Z,20.35
2023-03-19T14:49:26.314Z,19.95
2023-03-19T14:51:59.108Z,19.49
2023-03-19T14:54:28.152Z,19.13
2023-03-19T14:56:59.371Z,18.86
2023-03-19T14:59:37.747Z,18.62
2023-03-19T15:02:19.335Z,18.33
2023-03-19T15:04:50.285Z,18.12
2023-03-19T15:07:23.011Z,18.00
2023-03-19T15:09:55.177Z,17.94
2023-03-19T15:12:39.982Z,17.93
2023-03-19T15:15:26.806Z,17.96
2023-03-19T15:18:04.149Z,18.10
2023-03-19T15:20:38.225Z,18.25
2023-03-19T15:23:25.841Z,18.45
2023-03-19T15:25:58.171Z,18.61
2023-03-19T15:28:29.966Z,18.64
2023-03-19T15:31:14.425Z,18.58
2023-03-19T15:33:53.376Z,18.47
2023-03-19T15:36:26.111Z,18.33
2023-03-19T15:39:01.291Z,18.14
2023-03-19T15:41:33.104Z,17.96
2023-03-19T15:44:06.817Z,17.79
2023-03-19T15:46:38.422Z,17.66
2023-03-19T15:49:11.901Z,17.54
2023-03-19T15:51:42.695Z,17.46
2023-03-19T15:54:14.287Z,17.40
2023-03-19T15:56:44.935Z,17.30
2023-03-19T15:59:16.545Z,17.14
2023-03-19T16:01:47.544Z,16.95
2023-03-19T16:04:21.280Z,16.75
2023-03-19T16:06:52.634Z,16.58
2023-03-19T16:09:26.245Z,16.42
2023-03-19T16:11:57.303Z,16.25
2023-03-19T16:14:33.056Z,16.07
2023-03-19T16:17:04.690Z,15.89
2023-03-19T16:19:36.877Z,15.70
2023-03-19T16:22:14.018Z,15.51
2023-03-19T16:24:46.177Z,15.32
2023-03-19T16:27:18.045Z,15.15
2023-03-19T16:29:50.109Z,15.00
2023-03-19T16:32:22.270Z,14.85
2023-03-19T16:34:54.029Z,14.72
2023-03-19T16:37:34.046Z,14.60
2023-03-19T16:40:17.721Z,14.46
2023-03-19T16:42:49.684Z,14.32
2023-03-19T16:45:27.676Z,14.19
2023-03-19T16:47:58.738Z,14.05
2023-03-19T16:50:32.681Z,13.93
2023-03-19T16:53:05.106Z,13.82
2023-03-19T16:55:37.006Z,13.71
2023-03-19T16:58:09.252Z,13.58
2023-03-19T17:00:40.703Z,13.46
2023-03-19T17:03:13.919Z,13.36
2023-03-19T17:05:46.454Z,13.26
2023-03-19T17:08:16.885Z,13.17
2023-03-19T17:10:50.163Z,13.08
2023-03-19T17:13:22.131Z,12.99
2023-03-19T17:15:54.932Z,12.90
2023-03-19T17:18:27.807Z,12.82
2023-03-19T17:20:59.961Z,12.74
2023-03-19T17:23:30.701Z,12.67
2023-03-19T17:26:03.388Z,12.59
2023-03-19T17:28:34.011Z,12.52
2023-03-19T17:31:05.615Z,12.45
2023-03-19T17:33:36.720Z,12.38
2023-03-19T17:36:10.776Z,12.32
2023-03-19T17:38:42.064Z,12.26
2023-03-19T17:41:15.518Z,12.20
2023-03-19T17:43:46.836Z,12.13
2023-03-19T17:46:19.646Z,12.07
2023-03-19T17:48:51.365Z,12.01
2023-03-19T17:51:24.134Z,11.96
2023-03-19T17:53:55.668Z,11.91
2023-03-19T17:56:27.454Z,11.87
2023-03-19T17:58:58.266Z,11.82
2023-03-19T18:01:30.072Z,11.77
2023-03-19T18:04:02.307Z,11.72
2023-03-19T18:06:34.973Z,11.68
2023-03-19T18:09:05.911Z,11.64
2023-03-19T18:11:37.421Z,11.60
2023-03-19T18:14:08.106Z,11.56
2023-03-19T18:16:39.329Z,11.55
2023-03-19T18:19:16.998Z,11.53
2023-03-19T18:21:48.286Z,11.51
2023-03-19T18:24:19.015Z,11.49
2023-03-19T18:26:49.892Z,11.45
2023-03-19T18:29:20.800Z,11.41
2023-03-19T18:31:53.003Z,11.36
2023-03-19T18:34:23.696Z,11.31
2023-03-19T18:36:54.855Z,11.27
2023-03-19T18:39:25.878Z,11.23
2023-03-19T18:41:57.628Z,11.19
2023-03-19T18:44:28.369Z,11.14
2023-03-19T18:46:59.880Z,11.09
2023-03-19T18:49:31.174Z,11.05
2023-03-19T18:52:03.752Z,11.00
2023-03-19T18:54:34.598Z,10.94
2023-03-19T18:57:06.465Z,10.87
2023-03-19T18:59:37.282Z,10.80
2023-03-19T19:02:21.686Z,10.73
2023-03-19T19:04:52.247Z,10.64
2023-03-19T19:07:23.797Z,10.58
2023-03-19T19:09:54.395Z,10.51
2023-03-19T19:12:26.330Z,10.43
2023-03-19T19:14:58.811Z,10.38
2023-03-19T19:17:31.778Z,10.32
2023-03-19T19:20:02.373Z,10.26
2023-03-19T19:22:33.371Z,10.19
2023-03-19T19:25:03.859Z,10.13
2023-03-19T19:27:35.304Z,10.07
2023-03-19T19:30:07.107Z,10.01
2023-03-19T19:32:38.284Z,9.97
2023-03-19T19:35:15.430Z,9.92
2023-03-19T19:37:47.699Z,9.87
2023-03-19T19:40:19.324Z,9.82
2023-03-19T19:42:52.500Z,9.77
2023-03-19T19:45:27.709Z,9.73
2023-03-19T19:47:59.292Z,9.71
2023-03-19T19:50:29.694Z,9.67
2023-03-19T19:53:01.079Z,9.63
2023-03-19T19:55:31.487Z,9.57
2023-03-19T19:58:03.164Z,9.50
2023-03-19T20:00:33.776Z,9.42
2023-03-19T20:03:05.804Z,9.34
2023-03-19T20:05:36.582Z,9.26
2023-03-19T20:08:09.263Z,9.18
2023-03-19T20:10:39.880Z,9.09
2023-03-19T20:13:19.831Z,9.01
2023-03-19T20:15:50.537Z,8.95
2023-03-19T20:18:25.186Z,8.90
2023-03-19T20:20:55.940Z,8.86
2023-03-19T20:23:27.316Z,8.80
2023-03-19T20:25:58.521Z,8.78
2023-03-19T20:28:32.776Z,8.73
2023-03-19T20:31:03.794Z,8.69
2023-03-19T20:33:37.333Z,8.66
2023-03-19T20:36:06.469Z,8.63
2023-03-19T20:38:37.629Z,8.61
2023-03-19T20:41:16.138Z,8.57
2023-03-19T20:43:47.747Z,8.54
2023-03-19T20:46:19.962Z,8.47
2023-03-19T20:48:51.083Z,8.38
2023-03-19T20:51:25.061Z,8.30
2023-03-19T20:53:56.909Z,8.20
2023-03-19T20:56:27.810Z,8.12
2023-03-19T20:58:59.037Z,8.03
2023-03-19T21:01:30.094Z,7.94
2023-03-19T21:04:01.360Z,7.86
2023-03-19T21:06:49.853Z,7.77
2023-03-19T21:09:23.687Z,7.66
2023-03-19T21:11:54.304Z,7.57
2023-03-19T21:14:27.065Z,7.51
2023-03-19T21:16:57.916Z,7.41
2023-03-19T21:19:28.964Z,7.34
2023-03-19T21:21:59.799Z,7.27
2023-03-19T21:24:31.449Z,7.19
2023-03-19T21:27:04.000Z,7.12
2023-03-19T21:29:35.379Z,7.09
2023-03-19T21:32:11.330Z,7.73
2023-03-19T21:34:42.379Z,9.51
2023-03-19T21:37:13.008Z,10.21
2023-03-19T21:39:44.766Z,9.57
2023-03-19T21:42:17.456Z,8.89
2023-03-19T21:44:48.791Z,8.46
2023-03-19T21:47:22.399Z,8.18
2023-03-19T21:49:53.117Z,7.93
2023-03-19T21:52:24.070Z,7.76
2023-03-19T21:54:56.095Z,7.62
2023-03-19T21:57:26.987Z,8.55
2023-03-19T21:59:58.175Z,10.05
2023-03-19T22:02:40.772Z,10.17
2023-03-19T22:05:17.108Z,9.23
2023-03-19T22:07:47.916Z,8.55
2023-03-19T22:10:19.655Z,8.09
2023-03-19T22:12:50.642Z,7.86
2023-03-19T22:15:23.424Z,8.80
2023-03-19T22:17:54.018Z,10.06
2023-03-19T22:20:26.014Z,9.45
2023-03-19T22:22:56.810Z,8.68
2023-03-19T22:25:31.237Z,8.13
2023-03-19T22:28:05.156Z,7.73
2023-03-19T22:30:37.141Z,7.45
2023-03-19T22:33:14.054Z,7.23
2023-03-19T22:35:45.295Z,7.04
2023-03-19T22:38:16.069Z,7.14
2023-03-19T22:40:48.705Z,8.54
2023-03-19T22:43:22.757Z,9.93
2023-03-19T22:45:55.515Z,10.85
2023-03-19T22:48:26.575Z,10.72
2023-03-19T22:50:57.777Z,9.85
2023-03-19T22:53:30.716Z,8.95
2023-03-19T22:56:01.831Z,8.32
2023-03-19T22:58:32.461Z,7.88
2023-03-19T23:01:03.635Z,7.97
2023-03-19T23:03:35.446Z,9.24
2023-03-19T23:06:14.476Z,10.12
2023-03-19T23:08:47.903Z,9.48
2023-03-19T23:11:19.245Z,8.72
2023-03-19T23:13:49.876Z,8.15
2023-03-19T23:16:22.246Z,7.72
2023-03-19T23:21:24.750Z,7.17
2023-03-19T23:23:55.334Z,7.90
2023-03-19T23:26:28.571Z,9.44
2023-03-19T23:29:01.258Z,10.61
2023-03-19T23:31:32.175Z,11.13
2023-03-19T23:34:02.919Z,10.39
2023-03-19T23:36:34.160Z,9.51
2023-03-19T23:39:05.072Z,8.83
2023-03-19T23:41:39.448Z,8.24
2023-03-19T23:44:13.046Z,7.79
2023-03-19T23:46:44.295Z,7.71
2023-03-19T23:49:16.180Z,8.85
2023-03-19T23:51:47.925Z,10.12
2023-03-19T23:54:28.510Z,10.72
2023-03-19T23:57:01.208Z,9.91
2023-03-19T23:59:33.799Z,9.03
